createdAt,value
2019-05-30T00:00:36.046Z,100809.84
2019-05-30T00:03:06.117Z,100810.81
2019-05-30T00:05:35.963Z,100815.03
2019-05-30T00:08:05.900Z,100819.05
2019-05-30T00:10:35.767Z,100821.41
2019-05-30T00:13:05.591Z,100819.63
2019-05-30T00:15:35.564Z,100821.61
2019-05-30T00:18:05.564Z,100827.50
2019-05-30T00:20:35.314Z,100837.98
2019-05-30T00:23:05.559Z,100850.52
2019-05-30T00:25:35.424Z,100851.48
2019-05-30T00:28:05.382Z,100847.89
2019-05-30T00:30:35.515Z,100845.45
2019-05-30T00:33:06.771Z,100853.87
2019-05-30T00:35:36.887Z,100850.32
2019-05-30T00:38:06.803Z,100857.73
2019-05-30T00:40:36.803Z,100856.24
2019-05-30T00:43:06.733Z,100862.03
2019-05-30T00:45:36.547Z,100866.12
2019-05-30T00:48:06.631Z,100864.05
2019-05-30T00:50:36.357Z,100866.72
2019-05-30T00:53:07.840Z,100870.52
2019-05-30T00:55:37.626Z,100864.70
2019-05-30T00:58:07.612Z,100866.30
2019-05-30T01:00:43.756Z,100867.34
2019-05-30T01:03:10.598Z,100871.88
2019-05-30T01:05:40.491Z,100877.89
2019-05-30T01:08:10.390Z,100872.81
2019-05-30T01:10:40.335Z,100871.30
2019-05-30T01:13:10.251Z,100875.75
2019-05-30T01:15:40.102Z,100866.83
2019-05-30T01:18:09.982Z,100870.12
2019-05-30T01:20:40.020Z,100866.26
2019-05-30T01:23:09.858Z,100867.06
2019-05-30T01:25:39.505Z,100873.23
2019-05-30T01:28:09.420Z,100872.04
2019-05-30T01:30:39.382Z,100864.97
2019-05-30T01:33:09.253Z,100875.38
2019-05-30T01:35:39.170Z,100881.99
2019-05-30T01:38:09.136Z,100889.16
2019-05-30T01:40:39.003Z,100893.64
2019-05-30T01:43:08.932Z,100879.70
2019-05-30T01:45:38.885Z,100894.27
2019-05-30T01:48:08.812Z,100888.11
2019-05-30T01:50:38.680Z,100889.04
2019-05-30T01:53:08.935Z,100884.46
2019-05-30T01:55:41.191Z,100887.64
2019-05-30T01:58:10.986Z,100888.06
2019-05-30T02:00:41.397Z,100887.23
2019-05-30T02:03:11.339Z,100894.61
2019-05-30T02:05:41.143Z,100896.19
2019-05-30T02:08:11.097Z,100898.83
2019-05-30T02:10:40.924Z,100900.67
2019-05-30T02:13:10.923Z,100901.25
2019-05-30T02:15:40.838Z,100898.77
2019-05-30T02:18:12.002Z,100898.98
2019-05-30T02:20:41.771Z,100911.02
2019-05-30T02:23:11.645Z,100904.06
2019-05-30T02:25:41.352Z,100903.12
2019-05-30T02:28:11.140Z,100903.42
2019-05-30T02:30:41.166Z,100904.94
2019-05-30T02:33:12.985Z,100906.70
2019-05-30T02:35:42.941Z,100909.11
2019-05-30T02:38:12.849Z,100917.19
2019-05-30T02:40:42.731Z,100924.11
2019-05-30T02:43:12.528Z,100927.72
2019-05-30T02:45:42.313Z,100936.84
2019-05-30T02:48:12.558Z,100940.66
2019-05-30T02:50:42.963Z,100947.91
2019-05-30T02:53:13.367Z,100951.45
2019-05-30T02:55:43.686Z,100955.94
2019-05-30T02:58:13.568Z,100959.80
2019-05-30T03:00:43.662Z,100966.24
2019-05-30T03:03:14.442Z,100976.02
2019-05-30T03:05:44.716Z,100980.02
2019-05-30T03:08:14.883Z,100982.53
2019-05-30T03:10:45.284Z,100981.43
2019-05-30T03:13:15.561Z,100978.69
2019-05-30T03:15:46.472Z,100984.83
2019-05-30T03:18:16.123Z,100988.84
2019-05-30T03:20:46.326Z,100993.90
2019-05-30T03:23:16.382Z,100994.28
2019-05-30T03:25:46.405Z,100995.44
2019-05-30T03:28:17.859Z,101002.53
2019-05-30T03:30:47.775Z,101005.31
2019-05-30T03:33:36.388Z,100995.41
2019-05-30T03:35:49.542Z,100992.80
2019-05-30T03:38:20.800Z,100997.50
2019-05-30T03:40:50.892Z,100999.14
2019-05-30T03:43:20.805Z,101002.23
2019-05-30T03:45:52.578Z,100994.77
2019-05-30T03:48:24.029Z,100992.47
2019-05-30T03:50:55.917Z,100993.23
2019-05-30T03:53:27.287Z,100998.39
2019-05-30T03:56:04.464Z,100997.13
2019-05-30T03:58:47.331Z,100999.59
2019-05-30T04:01:23.283Z,101004.16
2019-05-30T04:04:08.988Z,101004.31
2019-05-30T04:06:41.687Z,101006.89
2019-05-30T04:09:21.655Z,101007.63
2019-05-30T04:11:52.983Z,101001.93
2019-05-30T04:14:26.546Z,101004.56
2019-05-30T04:16:57.349Z,101000.91
2019-05-30T04:19:27.210Z,101005.23
2019-05-30T04:21:57.078Z,101013.59
2019-05-30T04:24:26.997Z,101018.06
2019-05-30T04:26:56.951Z,101022.86
2019-05-30T04:29:26.815Z,101026.33
2019-05-30T04:31:56.717Z,101024.27
2019-05-30T04:34:26.690Z,101019.70
2019-05-30T04:36:56.483Z,101024.83
2019-05-30T04:39:26.170Z,101024.83
2019-05-30T04:41:56.029Z,101034.12
2019-05-30T04:44:25.944Z,101040.06
2019-05-30T04:46:55.822Z,101042.77
2019-05-30T04:49:25.526Z,101045.27
2019-05-30T04:51:55.552Z,101050.86
2019-05-30T04:54:25.396Z,101050.86
2019-05-30T04:56:55.288Z,101043.73
2019-05-30T04:59:25.253Z,101043.73
2019-05-30T05:01:55.123Z,101055.98
2019-05-30T05:04:25.072Z,101057.07
2019-05-30T05:06:54.861Z,101052.47
2019-05-30T05:09:24.560Z,101048.06
2019-05-30T05:11:54.431Z,101044.03
2019-05-30T05:14:24.330Z,101058.20
2019-05-30T05:16:54.200Z,101048.62
2019-05-30T05:19:25.902Z,101048.62
2019-05-30T05:21:55.476Z,101055.91
2019-05-30T05:24:25.434Z,101049.19
2019-05-30T05:26:55.318Z,101049.19
2019-05-30T05:29:25.213Z,101040.20
2019-05-30T05:31:55.097Z,101042.53
2019-05-30T05:34:24.916Z,101054.44
2019-05-30T05:36:54.768Z,101054.44
2019-05-30T05:39:24.560Z,101044.69
2019-05-30T05:41:54.417Z,101042.41
2019-05-30T05:44:24.565Z,101045.70
2019-05-30T05:46:54.342Z,101042.57
2019-05-30T05:49:24.875Z,101048.30
2019-05-30T05:51:54.705Z,101051.75
2019-05-30T05:54:24.997Z,101043.22
2019-05-30T05:56:56.094Z,101040.06
2019-05-30T05:59:25.970Z,101041.63
2019-05-30T06:01:55.699Z,101034.88
2019-05-30T06:04:25.556Z,101038.62
2019-05-30T06:06:55.434Z,101043.78
2019-05-30T06:09:25.338Z,101047.25
2019-05-30T06:11:55.414Z,101044.39
2019-05-30T06:14:26.219Z,101033.70
2019-05-30T06:16:56.248Z,101039.22
2019-05-30T06:19:27.572Z,101038.03
2019-05-30T06:21:57.284Z,101036.13
2019-05-30T06:24:27.929Z,101039.95
2019-05-30T06:26:57.888Z,101042.09
2019-05-30T06:29:28.406Z,101048.19
2019-05-30T06:31:58.311Z,101047.69
2019-05-30T06:34:38.470Z,101042.79
2019-05-30T06:36:59.843Z,101042.92
2019-05-30T06:39:29.726Z,101043.08
2019-05-30T06:41:59.533Z,101044.32
2019-05-30T06:44:30.223Z,101038.28
2019-05-30T06:47:00.041Z,101033.53
2019-05-30T06:49:31.017Z,101043.09
2019-05-30T06:52:00.988Z,101042.79
2019-05-30T06:54:31.557Z,101039.12
2019-05-30T06:57:01.464Z,101045.77
2019-05-30T06:59:31.845Z,101051.05
2019-05-30T07:02:01.835Z,101045.94
2019-05-30T07:04:50.444Z,101051.66
2019-05-30T07:07:05.905Z,101047.27
2019-05-30T07:09:34.641Z,101047.00
2019-05-30T07:12:04.865Z,101051.55
2019-05-30T07:14:34.658Z,101050.55
2019-05-30T07:17:04.505Z,101051.63
2019-05-30T07:19:37.662Z,101051.84
2019-05-30T07:22:05.716Z,101047.11
2019-05-30T07:24:35.571Z,101043.13
2019-05-30T07:27:05.517Z,101046.42
2019-05-30T07:29:35.504Z,101045.16
2019-05-30T07:32:05.211Z,101045.00
2019-05-30T07:34:35.048Z,101045.31
2019-05-30T07:37:04.968Z,101050.36
2019-05-30T07:39:37.317Z,101052.66
2019-05-30T07:42:06.933Z,101049.38
2019-05-30T07:44:38.082Z,101049.63
2019-05-30T07:47:07.867Z,101051.38
2019-05-30T07:49:38.676Z,101050.55
2019-05-30T07:52:08.809Z,101050.17
2019-05-30T07:54:39.285Z,101056.02
2019-05-30T07:57:09.077Z,101053.05
2019-05-30T07:59:38.889Z,101063.39
2019-05-30T08:02:09.341Z,101059.64
2019-05-30T08:04:39.253Z,101065.69
2019-05-30T08:07:09.042Z,101066.78
2019-05-30T08:09:39.279Z,101068.53
2019-05-30T08:12:09.204Z,101067.95
2019-05-30T08:14:39.016Z,101062.36
2019-05-30T08:17:08.950Z,101066.05
2019-05-30T08:19:38.837Z,101061.50
2019-05-30T08:22:08.649Z,101063.20
2019-05-30T08:24:38.958Z,101054.63
2019-05-30T08:27:08.809Z,101058.61
2019-05-30T08:29:38.703Z,101061.50
2019-05-30T08:32:08.468Z,101054.54
2019-05-30T08:34:38.876Z,101057.69
2019-05-30T08:37:08.667Z,101055.68
2019-05-30T08:39:39.400Z,101055.70
2019-05-30T08:42:09.119Z,101049.60
2019-05-30T08:44:40.134Z,101043.93
2019-05-30T08:47:10.122Z,101041.44
2019-05-30T08:49:40.407Z,101021.94
2019-05-30T08:52:10.130Z,101051.65
2019-05-30T08:54:40.577Z,101057.52
2019-05-30T08:57:10.452Z,101055.95
2019-05-30T08:59:40.745Z,101052.77
2019-05-30T09:02:10.872Z,101048.50
2019-05-30T09:04:41.892Z,101054.50
2019-05-30T09:07:11.875Z,101053.50
2019-05-30T09:09:44.275Z,101051.25
2019-05-30T09:12:14.080Z,101053.75
2019-05-30T09:14:45.319Z,101051.04
2019-05-30T09:17:15.370Z,101054.14
2019-05-30T09:19:45.484Z,101060.69
2019-05-30T09:22:15.486Z,101054.05
2019-05-30T09:24:46.601Z,101050.98
2019-05-30T09:27:16.443Z,101053.31
2019-05-30T09:29:46.286Z,101058.39
2019-05-30T09:32:15.995Z,101058.11
2019-05-30T09:34:46.880Z,101050.70
2019-05-30T09:37:16.662Z,101042.80
2019-05-30T09:39:47.410Z,101018.06
2019-05-30T09:42:17.357Z,101051.25
2019-05-30T09:44:50.473Z,101051.32
2019-05-30T09:47:20.070Z,101046.38
2019-05-30T09:49:51.079Z,101044.00
2019-05-30T09:52:21.144Z,101037.17
2019-05-30T09:54:51.084Z,101040.02
2019-05-30T09:57:20.971Z,101039.77
2019-05-30T09:59:52.128Z,101034.34
2019-05-30T10:02:22.073Z,101034.31
2019-05-30T10:04:52.611Z,101032.89
2019-05-30T10:07:22.521Z,101033.22
2019-05-30T10:09:53.155Z,101035.05
2019-05-30T10:12:23.022Z,101032.58
2019-05-30T10:14:53.008Z,101042.89
2019-05-30T10:17:22.960Z,101036.01
2019-05-30T10:19:53.078Z,101039.91
2019-05-30T10:22:22.732Z,101034.88
2019-05-30T10:24:53.293Z,101032.09
2019-05-30T10:27:23.252Z,101034.66
2019-05-30T10:29:53.397Z,101036.32
2019-05-30T10:32:23.414Z,101035.48
2019-05-30T10:34:54.218Z,101040.77
2019-05-30T10:37:24.200Z,101037.69
2019-05-30T10:39:58.681Z,101036.46
2019-05-30T10:42:25.425Z,101043.58
2019-05-30T10:44:56.458Z,101035.88
2019-05-30T10:47:26.171Z,101040.55
2019-05-30T10:49:55.985Z,101044.38
2019-05-30T10:52:25.958Z,101039.47
2019-05-30T10:54:55.805Z,101037.72
2019-05-30T10:57:25.417Z,101033.53
2019-05-30T10:59:56.825Z,101039.88
2019-05-30T11:02:29.342Z,101034.97
2019-05-30T11:04:59.127Z,101044.89
2019-05-30T11:07:52.828Z,101045.83
2019-05-30T11:10:12.943Z,101037.72
2019-05-30T11:12:42.912Z,101039.88
2019-05-30T11:15:12.854Z,101040.09
2019-05-30T11:17:44.075Z,101041.34
2019-05-30T11:20:13.951Z,101050.19
2019-05-30T11:22:43.632Z,101042.75
2019-05-30T11:25:13.893Z,101048.46
2019-05-30T11:27:43.682Z,101044.04
2019-05-30T11:30:13.713Z,101043.35
2019-05-30T11:32:43.677Z,101050.27
2019-05-30T11:35:13.880Z,101055.80
2019-05-30T11:37:43.847Z,101049.27
2019-05-30T11:40:14.459Z,101034.18
2019-05-30T11:42:44.351Z,101046.87
2019-05-30T11:45:14.826Z,101041.03
2019-05-30T11:47:44.487Z,101036.31
2019-05-30T11:50:14.978Z,101031.97
2019-05-30T11:52:44.826Z,101035.05
2019-05-30T11:55:14.817Z,101023.34
2019-05-30T11:57:44.794Z,101026.82
2019-05-30T12:00:14.944Z,101022.66
2019-05-30T12:02:44.803Z,101017.31
2019-05-30T12:05:15.716Z,101011.24
2019-05-30T12:07:45.616Z,101009.44
2019-05-30T12:10:15.739Z,101011.69
2019-05-30T12:12:45.629Z,101010.94
2019-05-30T12:15:15.601Z,101005.38
2019-05-30T12:17:45.498Z,101012.06
2019-05-30T12:20:15.946Z,101012.39
2019-05-30T12:22:45.634Z,101000.08
2019-05-30T12:25:16.229Z,101003.66
2019-05-30T12:27:46.113Z,101001.21
2019-05-30T12:30:17.226Z,101002.77
2019-05-30T12:32:46.890Z,101005.73
2019-05-30T12:35:16.964Z,101003.80
2019-05-30T12:37:54.667Z,100999.19
2019-05-30T12:40:18.995Z,101003.88
2019-05-30T12:42:48.862Z,100997.01
2019-05-30T12:45:19.105Z,100997.00
2019-05-30T12:47:48.958Z,100987.55
2019-05-30T12:50:19.237Z,100988.17
2019-05-30T12:52:49.280Z,100987.06
2019-05-30T12:55:19.328Z,100985.71
2019-05-30T12:57:50.217Z,100978.64
2019-05-30T13:00:21.992Z,100983.53
2019-05-30T13:02:51.953Z,100977.14
2019-05-30T13:05:21.706Z,100975.15
2019-05-30T13:07:51.613Z,100979.94
2019-05-30T13:10:22.117Z,100982.44
2019-05-30T13:12:52.109Z,100979.39
2019-05-30T13:15:21.984Z,100981.88
2019-05-30T13:17:51.872Z,100980.25
2019-05-30T13:20:22.454Z,100988.07
2019-05-30T13:22:52.149Z,100992.88
2019-05-30T13:25:22.818Z,100998.50
2019-05-30T13:27:52.943Z,100991.02
2019-05-30T13:30:23.121Z,101000.43
2019-05-30T13:32:53.069Z,100998.63
2019-05-30T13:35:23.026Z,100997.84
2019-05-30T13:37:52.985Z,100998.05
2019-05-30T13:40:25.573Z,100999.50
2019-05-30T13:42:54.802Z,101000.02
2019-05-30T13:45:24.905Z,101002.89
2019-05-30T13:47:54.598Z,101008.42
2019-05-30T13:50:24.677Z,101006.28
2019-05-30T13:52:54.549Z,101000.08
2019-05-30T13:55:28.146Z,100998.05
2019-05-30T13:57:57.441Z,101002.10
2019-05-30T14:00:29.781Z,101003.45
2019-05-30T14:02:59.919Z,100998.93
2019-05-30T14:05:29.766Z,101002.84
2019-05-30T14:07:59.965Z,100997.42
2019-05-30T14:10:30.197Z,101002.79
2019-05-30T14:13:00.740Z,100999.94
2019-05-30T14:15:30.614Z,100990.63
2019-05-30T14:18:04.952Z,100986.77
2019-05-30T14:20:34.906Z,100990.67
2019-05-30T14:23:05.484Z,100989.07
2019-05-30T14:25:35.355Z,100993.39
2019-05-30T14:28:05.704Z,100994.90
2019-05-30T14:30:38.156Z,101006.77
2019-05-30T14:33:08.189Z,100997.23
2019-05-30T14:35:38.108Z,100993.10
2019-05-30T14:38:08.741Z,100992.31
2019-05-30T14:40:38.568Z,100990.45
2019-05-30T14:43:09.331Z,101003.56
2019-05-30T14:45:40.431Z,101002.38
2019-05-30T14:48:10.638Z,100999.11
2019-05-30T14:50:40.563Z,100999.34
2019-05-30T14:53:11.003Z,100988.02
2019-05-30T14:55:42.143Z,100987.67
2019-05-30T14:58:13.195Z,100984.20
2019-05-30T15:00:43.187Z,100981.11
2019-05-30T15:03:15.891Z,100981.59
2019-05-30T15:05:44.549Z,100979.80
2019-05-30T15:08:14.503Z,100984.27
2019-05-30T15:10:44.330Z,100980.45
2019-05-30T15:13:14.220Z,100975.64
2019-05-30T15:15:44.159Z,100982.39
2019-05-30T15:18:14.037Z,100979.92
2019-05-30T15:20:43.675Z,100984.91
2019-05-30T15:23:13.857Z,100972.31
2019-05-30T15:25:43.696Z,100980.64
2019-05-30T15:28:14.637Z,100980.40
2019-05-30T15:30:44.443Z,100980.95
2019-05-30T15:33:14.493Z,100979.31
2019-05-30T15:35:44.083Z,100976.00
2019-05-30T15:38:15.273Z,100981.01
2019-05-30T15:40:45.143Z,100975.89
2019-05-30T15:43:15.556Z,100977.23
2019-05-30T15:45:45.508Z,100972.64
2019-05-30T15:48:16.407Z,100976.79
2019-05-30T15:50:46.280Z,100983.89
2019-05-30T15:53:17.277Z,100977.66
2019-05-30T15:55:47.098Z,100978.88
2019-05-30T15:58:18.135Z,100980.47
2019-05-30T16:00:47.952Z,100987.69
2019-05-30T16:03:18.472Z,100976.56
2019-05-30T16:05:48.384Z,100985.64
2019-05-30T16:08:18.844Z,100981.25
2019-05-30T16:10:48.763Z,100979.17
2019-05-30T16:13:19.481Z,100979.81
2019-05-30T16:15:53.722Z,100978.88
2019-05-30T16:18:23.415Z,100974.78
2019-05-30T16:20:53.259Z,100976.77
2019-05-30T16:23:23.036Z,100978.05
2019-05-30T16:25:52.768Z,100972.60
2019-05-30T16:28:23.165Z,100974.71
2019-05-30T16:30:52.790Z,100977.05
2019-05-30T16:33:22.519Z,100977.52
2019-05-30T16:35:52.351Z,100982.35
2019-05-30T16:38:22.265Z,100982.86
2019-05-30T16:40:53.513Z,100989.23
2019-05-30T16:43:23.421Z,100994.66
2019-05-30T16:45:53.849Z,100988.67
2019-05-30T16:48:23.651Z,100995.59
2019-05-30T16:50:53.688Z,100997.92
2019-05-30T16:53:25.795Z,101005.54
2019-05-30T16:55:55.169Z,101009.23
2019-05-30T16:58:25.839Z,101012.67
2019-05-30T17:00:55.576Z,101019.45
2019-05-30T17:03:26.103Z,101008.19
2019-05-30T17:05:55.944Z,101005.37
2019-05-30T17:08:26.840Z,101007.31
2019-05-30T17:10:56.684Z,101007.20
2019-05-30T17:13:26.493Z,101012.02
2019-05-30T17:15:56.267Z,101014.49
2019-05-30T17:18:26.417Z,101029.47
2019-05-30T17:20:56.281Z,101022.95
2019-05-30T17:23:26.966Z,101017.81
2019-05-30T17:25:56.821Z,101018.58
2019-05-30T17:28:26.945Z,101021.70
2019-05-30T17:30:56.805Z,101017.71
2019-05-30T17:33:26.791Z,101012.83
2019-05-30T17:35:57.841Z,101000.69
2019-05-30T17:38:28.770Z,101001.68
2019-05-30T17:40:58.729Z,101015.63
2019-05-30T17:43:29.274Z,101026.20
2019-05-30T17:45:59.118Z,101029.66
2019-05-30T17:48:29.799Z,101025.34
2019-05-30T17:51:01.008Z,101028.16
2019-05-30T17:53:30.830Z,101032.86
2019-05-30T17:56:00.806Z,101034.52
2019-05-30T17:58:30.672Z,101045.79
2019-05-30T18:01:00.595Z,101050.42
2019-05-30T18:03:30.671Z,101058.73
2019-05-30T18:06:00.394Z,101062.36
2019-05-30T18:08:31.353Z,101063.77
2019-05-30T18:11:01.305Z,101065.15
2019-05-30T18:13:31.340Z,101073.56
2019-05-30T18:16:01.210Z,101061.34
2019-05-30T18:18:31.412Z,101063.98
2019-05-30T18:21:01.079Z,101076.20
2019-05-30T18:23:31.731Z,101093.88
2019-05-30T18:26:01.720Z,101098.14
2019-05-30T18:28:32.059Z,101097.63
2019-05-30T18:31:02.145Z,101083.14
2019-05-30T18:33:32.558Z,101094.09
2019-05-30T18:36:02.526Z,101094.10
2019-05-30T18:38:32.719Z,101108.33
2019-05-30T18:41:11.258Z,101098.75
2019-05-30T18:43:34.279Z,101104.02
2019-05-30T18:46:04.195Z,101107.34
2019-05-30T18:48:34.077Z,101103.41
2019-05-30T18:51:03.974Z,101099.92
2019-05-30T18:53:33.741Z,101106.70
2019-05-30T18:56:03.655Z,101108.69
2019-05-30T18:58:33.610Z,101119.45
2019-05-30T19:01:03.618Z,101115.30
2019-05-30T19:03:33.460Z,101113.80
2019-05-30T19:06:03.302Z,101112.95
2019-05-30T19:08:34.171Z,101113.14
2019-05-30T19:11:04.090Z,101116.92
2019-05-30T19:13:35.160Z,101113.48
2019-05-30T19:16:05.055Z,101118.61
2019-05-30T19:18:35.747Z,101105.86
2019-05-30T19:21:05.634Z,101111.83
2019-05-30T19:23:39.523Z,101110.30
2019-05-30T19:26:06.770Z,101122.58
2019-05-30T19:28:37.849Z,101119.11
2019-05-30T19:31:07.621Z,101122.94
2019-05-30T19:33:37.750Z,101122.78
2019-05-30T19:36:07.702Z,101118.92
2019-05-30T19:38:37.674Z,101117.94
2019-05-30T19:41:07.545Z,101109.50
2019-05-30T19:43:38.053Z,101117.10
2019-05-30T19:46:07.830Z,101114.30
2019-05-30T19:48:38.924Z,101125.92
2019-05-30T19:51:08.810Z,101128.38
2019-05-30T19:53:39.173Z,101127.40
2019-05-30T19:56:09.098Z,101123.58
2019-05-30T19:58:39.875Z,101124.22
2019-05-30T20:01:09.781Z,101126.08
2019-05-30T20:03:45.176Z,101123.58
2019-05-30T20:06:11.259Z,101126.70
2019-05-30T20:08:52.910Z,101126.02
2019-05-30T20:11:13.780Z,101129.16
2019-05-30T20:13:43.681Z,101127.20
2019-05-30T20:16:13.510Z,101120.58
2019-05-30T20:18:43.344Z,101116.92
2019-05-30T20:21:13.341Z,101123.88
2019-05-30T20:23:52.619Z,101131.70
2019-05-30T20:26:14.556Z,101127.70
2019-05-30T20:28:44.320Z,101128.03
2019-05-30T20:31:14.225Z,101121.23
2019-05-30T20:33:44.195Z,101121.56
2019-05-30T20:36:13.864Z,101122.56
2019-05-30T20:38:43.769Z,101123.23
2019-05-30T20:41:13.769Z,101110.98
2019-05-30T20:43:45.130Z,101117.41
2019-05-30T20:46:23.279Z,101119.04
2019-05-30T20:48:47.701Z,101123.04
2019-05-30T20:51:21.228Z,101121.23
2019-05-30T20:53:48.902Z,101112.63
2019-05-30T20:56:18.897Z,101116.11
2019-05-30T20:58:48.757Z,101115.93
2019-05-30T21:01:18.544Z,101120.09
2019-05-30T21:03:48.309Z,101120.19
2019-05-30T21:06:19.517Z,101129.95
2019-05-30T21:08:50.950Z,101132.93
2019-05-30T21:11:21.335Z,101137.06
2019-05-30T21:13:53.988Z,101135.60
2019-05-30T21:16:24.225Z,101127.16
2019-05-30T21:18:54.290Z,101127.83
2019-05-30T21:21:24.057Z,101137.30
2019-05-30T21:23:53.969Z,101139.42
2019-05-30T21:26:23.929Z,101127.67
2019-05-30T21:28:53.956Z,101128.83
2019-05-30T21:31:23.729Z,101133.45
2019-05-30T21:33:53.826Z,101140.58
2019-05-30T21:36:26.635Z,101133.61
2019-05-30T21:38:55.088Z,101136.80
2019-05-30T21:41:24.867Z,101140.10
2019-05-30T21:43:54.738Z,101138.11
2019-05-30T21:46:25.377Z,101135.16
2019-05-30T21:48:55.138Z,101134.14
2019-05-30T21:51:24.999Z,101131.17
2019-05-30T21:53:54.913Z,101130.84
2019-05-30T21:56:25.972Z,101122.90
2019-05-30T21:58:55.753Z,101120.59
2019-05-30T22:01:30.344Z,101119.27
2019-05-30T22:04:00.640Z,101120.93
2019-05-30T22:06:30.988Z,101113.13
2019-05-30T22:09:03.441Z,101118.73
2019-05-30T22:11:32.428Z,101115.44
2019-05-30T22:14:02.442Z,101114.95
2019-05-30T22:16:32.307Z,101107.84
2019-05-30T22:19:02.285Z,101108.97
2019-05-30T22:21:32.092Z,101105.67
2019-05-30T22:24:01.908Z,101096.54
2019-05-30T22:26:31.708Z,101097.07
2019-05-30T22:29:01.503Z,101101.36
2019-05-30T22:31:31.294Z,101087.97
2019-05-30T22:34:01.176Z,101085.66
2019-05-30T22:36:30.969Z,101082.82
2019-05-30T22:39:00.977Z,101078.20
2019-05-30T22:41:30.839Z,101073.24
2019-05-30T22:44:00.833Z,101069.90
2019-05-30T22:46:31.899Z,101068.41
2019-05-30T22:49:01.725Z,101067.39
2019-05-30T22:51:31.721Z,101067.00
2019-05-30T22:54:01.606Z,101065.98
2019-05-30T22:56:31.451Z,101057.37
2019-05-30T22:59:01.257Z,101060.02
2019-05-30T23:01:31.382Z,101064.84
2019-05-30T23:04:01.174Z,101058.56
2019-05-30T23:06:31.017Z,101062.19
2019-05-30T23:09:00.965Z,101067.98
2019-05-30T23:11:30.811Z,101067.60
2019-05-30T23:14:00.543Z,101070.11
2019-05-30T23:16:30.393Z,101071.84
2019-05-30T23:19:00.199Z,101074.75
2019-05-30T23:21:30.026Z,101074.72
2019-05-30T23:24:00.185Z,101082.78
2019-05-30T23:26:29.950Z,101090.23
2019-05-30T23:28:59.786Z,101090.84
2019-05-30T23:31:29.731Z,101084.69
2019-05-30T23:33:59.607Z,101087.41
2019-05-30T23:36:29.530Z,101086.34
2019-05-30T23:38:59.498Z,101084.39
2019-05-30T23:41:29.449Z,101091.19
2019-05-30T23:44:10.695Z,101092.95
2019-05-30T23:46:30.751Z,101098.19
2019-05-30T23:49:00.644Z,101096.66
2019-05-30T23:51:30.695Z,101104.81
2019-05-30T23:54:00.652Z,101104.69
2019-05-30T23:56:30.294Z,101101.92
2019-05-30T23:59:01.229Z,101097.83
